createdAt,value
2022-10-22T00:00:01.580Z,19.92
2022-10-22T00:03:04.795Z,18.25
2022-10-22T00:06:08.680Z,24.00
2022-10-22T00:09:11.951Z,21.48
2022-10-22T00:12:16.196Z,20.37
2022-10-22T00:15:20.721Z,18.98
2022-10-22T00:18:23.811Z,21.08
2022-10-22T00:21:28.962Z,22.00
2022-10-22T00:24:32.412Z,19.33
2022-10-22T00:27:35.533Z,16.25
2022-10-22T00:30:40.046Z,24.45
2022-10-22T00:33:43.203Z,22.88
2022-10-22T00:36:46.467Z,21.02
2022-10-22T00:39:49.598Z,21.87
2022-10-22T00:42:52.829Z,18.90
2022-10-22T00:45:57.473Z,19.57
2022-10-22T00:49:03.961Z,19.70
2022-10-22T00:52:07.749Z,19.10
2022-10-22T00:55:12.398Z,19.98
2022-10-22T00:58:16.676Z,20.70
2022-10-22T01:01:27.411Z,21.10
2022-10-22T01:04:30.941Z,16.95
2022-10-22T01:07:46.846Z,19.58
2022-10-22T01:11:05.442Z,14.70
2022-10-22T01:14:20.042Z,12.90
2022-10-22T01:17:32.705Z,20.92
2022-10-22T01:21:01.427Z,14.60
2022-10-22T01:24:46.572Z,12.90
2022-10-22T01:31:11.120Z,13.13
2022-10-22T01:34:19.700Z,13.40
2022-10-22T01:37:27.116Z,22.50
2022-10-22T01:40:32.995Z,19.25
2022-10-22T01:43:36.392Z,17.13
2022-10-22T01:46:41.054Z,19.30
2022-10-22T01:50:28.766Z,14.65
2022-10-22T01:57:01.745Z,14.07
2022-10-22T02:00:10.835Z,18.52
2022-10-22T02:03:23.737Z,14.20
2022-10-22T02:06:30.750Z,19.25
2022-10-22T02:09:36.850Z,14.73
2022-10-22T02:12:43.505Z,16.77
2022-10-22T02:15:51.501Z,14.23
2022-10-22T02:18:59.784Z,15.60
2022-10-22T02:22:03.226Z,14.65
2022-10-22T02:25:08.297Z,14.82
2022-10-22T02:28:20.666Z,18.85
2022-10-22T02:31:29.295Z,14.68
2022-10-22T02:34:34.371Z,13.32
2022-10-22T02:37:38.383Z,13.45
2022-10-22T02:40:42.335Z,16.50
2022-10-22T02:43:52.758Z,21.02
2022-10-22T02:46:55.919Z,20.15
2022-10-22T02:50:00.405Z,16.67
2022-10-22T02:53:03.684Z,19.48
2022-10-22T02:56:07.540Z,16.83
2022-10-22T02:59:11.268Z,18.88
2022-10-22T03:02:14.652Z,16.25
2022-10-22T03:05:19.383Z,16.13
2022-10-22T03:08:22.596Z,16.13
2022-10-22T03:11:25.909Z,17.60
2022-10-22T03:14:29.104Z,18.00
2022-10-22T03:17:32.191Z,20.63
2022-10-22T03:20:36.674Z,19.55
2022-10-22T03:23:42.846Z,17.58
2022-10-22T03:26:51.610Z,15.02
2022-10-22T03:29:58.471Z,16.55
2022-10-22T03:33:01.608Z,17.20
2022-10-22T03:36:09.375Z,18.00
2022-10-22T03:39:15.518Z,16.83
2022-10-22T03:42:20.688Z,15.68
2022-10-22T03:45:23.880Z,17.50
2022-10-22T03:48:27.366Z,16.25
2022-10-22T03:51:32.069Z,18.48
2022-10-22T03:54:36.218Z,20.73
2022-10-22T04:00:42.816Z,16.60
2022-10-22T04:03:45.951Z,18.85
2022-10-22T04:06:50.502Z,17.80
2022-10-22T04:09:53.864Z,17.98
2022-10-22T04:12:56.999Z,19.27
2022-10-22T04:16:09.408Z,18.30
2022-10-22T04:19:13.132Z,17.05
2022-10-22T04:22:17.715Z,14.32
2022-10-22T04:25:20.868Z,16.95
2022-10-22T04:28:24.329Z,23.33
2022-10-22T04:31:27.975Z,25.17
2022-10-22T04:34:31.344Z,23.52
2022-10-22T04:37:36.153Z,27.70
2022-10-22T04:40:39.399Z,25.35
2022-10-22T04:43:44.242Z,26.77
2022-10-22T04:46:47.422Z,24.63
2022-10-22T04:49:50.587Z,28.43
2022-10-22T04:52:57.175Z,30.27
2022-10-22T04:56:10.124Z,24.23
2022-10-22T04:59:14.607Z,20.80
2022-10-22T05:02:17.685Z,28.02
2022-10-22T05:05:21.347Z,22.00
2022-10-22T05:08:25.917Z,25.33
2022-10-22T05:11:34.864Z,23.75
2022-10-22T05:14:40.294Z,27.67
2022-10-22T05:17:45.658Z,21.08
2022-10-22T05:20:48.757Z,22.27
2022-10-22T05:23:56.843Z,27.45
2022-10-22T05:27:01.583Z,27.42
2022-10-22T05:30:05.824Z,25.48
2022-10-22T05:33:09.704Z,23.92
2022-10-22T05:36:17.236Z,28.77
2022-10-22T05:39:22.139Z,30.45
2022-10-22T05:42:25.455Z,26.55
2022-10-22T05:45:28.664Z,22.93
2022-10-22T05:51:40.378Z,31.13
2022-10-22T05:54:45.090Z,26.55
2022-10-22T05:57:49.235Z,22.90
2022-10-22T06:03:57.441Z,19.20
2022-10-22T06:07:00.613Z,29.15
2022-10-22T06:10:06.125Z,38.67
2022-10-22T06:13:09.293Z,29.33
2022-10-22T06:16:12.678Z,35.03
2022-10-22T06:19:20.281Z,48.08
2022-10-22T06:22:23.688Z,33.20
2022-10-22T06:25:28.654Z,32.08
2022-10-22T06:28:33.918Z,29.88
2022-10-22T06:31:37.622Z,39.25
2022-10-22T06:34:41.149Z,33.42
2022-10-22T06:37:44.304Z,27.13
2022-10-22T06:40:48.729Z,38.73
2022-10-22T06:43:52.484Z,38.33
2022-10-22T06:46:55.817Z,25.02
2022-10-22T06:49:58.936Z,23.03
2022-10-22T06:53:02.118Z,21.40
2022-10-22T06:56:13.220Z,28.17
2022-10-22T06:59:16.550Z,32.40
2022-10-22T07:02:19.793Z,24.20
2022-10-22T07:05:22.948Z,36.33
2022-10-22T07:08:26.396Z,43.50
2022-10-22T07:11:39.314Z,27.38
2022-10-22T07:14:42.402Z,25.58
2022-10-22T07:17:46.669Z,24.85
2022-10-22T07:20:50.839Z,26.77
2022-10-22T07:23:54.081Z,31.45
2022-10-22T07:26:58.793Z,28.20
2022-10-22T07:30:02.089Z,28.13
2022-10-22T07:33:05.448Z,35.63
2022-10-22T07:36:17.405Z,22.47
2022-10-22T07:39:20.637Z,30.10
2022-10-22T07:42:25.147Z,30.10
2022-10-22T07:45:28.717Z,29.00
2022-10-22T07:48:31.860Z,33.58
2022-10-22T07:51:35.104Z,29.00
2022-10-22T07:54:38.289Z,31.23
2022-10-22T07:57:42.821Z,30.25
2022-10-22T08:00:46.337Z,27.15
2022-10-22T08:03:49.928Z,34.97
2022-10-22T08:06:53.100Z,32.53
2022-10-22T08:09:56.741Z,36.88
2022-10-22T08:13:01.461Z,33.47
2022-10-22T08:16:07.428Z,39.63
2022-10-22T08:19:10.638Z,39.97
2022-10-22T08:22:13.927Z,40.10
2022-10-22T08:25:18.841Z,38.30
2022-10-22T08:28:24.074Z,34.30
2022-10-22T08:31:27.188Z,33.55
2022-10-22T08:34:31.300Z,33.00
2022-10-22T08:40:41.751Z,37.53
2022-10-22T08:44:52.278Z,33.20
2022-10-22T08:48:15.581Z,36.58
2022-10-22T08:51:22.600Z,37.22
2022-10-22T08:54:38.201Z,35.80
2022-10-22T08:57:58.005Z,34.97
2022-10-22T09:01:09.468Z,38.25
2022-10-22T09:04:25.095Z,36.33
2022-10-22T09:07:28.371Z,32.90
2022-10-22T09:10:38.109Z,39.13
2022-10-22T09:13:45.724Z,37.25
2022-10-22T09:17:14.593Z,30.73
2022-10-22T09:20:28.602Z,30.90
2022-10-22T09:23:40.847Z,35.67
2022-10-22T09:26:43.914Z,37.45
2022-10-22T09:29:49.501Z,31.15
2022-10-22T09:33:02.153Z,32.22
2022-10-22T09:36:07.801Z,31.88
2022-10-22T09:39:26.472Z,29.95
2022-10-22T09:42:29.779Z,28.25
2022-10-22T09:45:33.800Z,30.83
2022-10-22T09:48:42.651Z,31.35
2022-10-22T09:51:54.720Z,35.90
2022-10-22T09:55:03.580Z,30.88
2022-10-22T09:58:11.681Z,30.30
2022-10-22T10:01:23.064Z,28.88
2022-10-22T10:04:27.709Z,27.75
2022-10-22T10:07:34.428Z,29.58
2022-10-22T10:10:49.027Z,27.58
2022-10-22T10:14:06.538Z,26.65
2022-10-22T10:17:24.509Z,25.20
2022-10-22T10:20:42.427Z,27.25
2022-10-22T10:23:56.740Z,28.10
2022-10-22T10:27:11.685Z,22.55
2022-10-22T10:30:19.684Z,22.55
2022-10-22T10:33:39.322Z,24.10
2022-10-22T10:36:56.065Z,18.58
2022-10-22T10:40:26.064Z,24.98
2022-10-22T10:43:42.672Z,26.85
2022-10-22T10:46:59.501Z,19.30
2022-10-22T10:50:21.243Z,18.80
2022-10-22T10:53:48.744Z,19.33
2022-10-22T10:56:57.825Z,18.15
2022-10-22T11:00:10.231Z,16.42
2022-10-22T11:03:47.581Z,15.77
2022-10-22T11:06:56.311Z,20.48
2022-10-22T11:10:21.065Z,18.45
2022-10-22T11:13:34.515Z,18.27
2022-10-22T11:16:47.106Z,16.08
2022-10-22T11:20:02.452Z,17.45
2022-10-22T11:23:19.886Z,16.02
2022-10-22T11:26:38.448Z,14.95
2022-10-22T11:29:48.761Z,12.05
2022-10-22T11:32:58.537Z,16.45
2022-10-22T11:36:06.277Z,14.55
2022-10-22T11:39:31.716Z,14.45
2022-10-22T11:42:40.909Z,12.05
2022-10-22T11:45:44.743Z,12.65
2022-10-22T11:49:06.116Z,15.77
2022-10-22T11:52:26.945Z,10.63
2022-10-22T11:55:48.245Z,11.52
2022-10-22T11:58:55.656Z,10.57
2022-10-22T12:01:58.791Z,10.48
2022-10-22T12:05:44.450Z,10.90
2022-10-22T12:08:55.134Z,11.13
2022-10-22T12:12:11.975Z,11.57
2022-10-22T12:15:28.345Z,9.45
2022-10-22T12:18:42.300Z,10.25
2022-10-22T12:21:50.767Z,11.20
2022-10-22T12:24:58.117Z,10.15
2022-10-22T12:28:01.488Z,11.57
2022-10-22T12:31:06.503Z,11.93
2022-10-22T12:34:16.589Z,9.75
2022-10-22T12:37:20.421Z,15.70
2022-10-22T12:40:27.498Z,14.93
2022-10-22T12:43:33.406Z,13.07
2022-10-22T12:46:38.139Z,12.90
2022-10-22T12:49:48.880Z,13.30
2022-10-22T12:52:55.499Z,13.35
2022-10-22T12:56:03.681Z,12.63
2022-10-22T12:59:17.475Z,10.38
2022-10-22T13:02:25.589Z,12.85
2022-10-22T13:05:38.811Z,11.23
2022-10-22T13:08:42.804Z,10.98
2022-10-22T13:11:54.317Z,15.07
2022-10-22T13:15:18.702Z,14.10
2022-10-22T13:18:25.897Z,15.15
2022-10-22T13:21:35.450Z,16.77
2022-10-22T13:24:50.840Z,16.42
2022-10-22T13:27:57.498Z,13.20
2022-10-22T13:31:03.912Z,14.45
2022-10-22T13:34:17.138Z,15.40
2022-10-22T13:37:20.518Z,15.85
2022-10-22T13:40:23.870Z,19.20
2022-10-22T13:43:27.528Z,18.20
2022-10-22T13:46:31.356Z,16.98
2022-10-22T13:49:36.126Z,18.45
2022-10-22T13:52:43.841Z,16.75
2022-10-22T13:55:47.616Z,18.95
2022-10-22T13:58:51.268Z,22.92
2022-10-22T14:01:55.756Z,21.67
2022-10-22T14:05:03.272Z,18.65
2022-10-22T14:08:14.021Z,18.75
2022-10-22T14:11:18.140Z,20.02
2022-10-22T14:17:34.149Z,19.00
2022-10-22T14:20:41.974Z,20.25
2022-10-22T14:23:50.571Z,20.00
2022-10-22T14:27:03.906Z,22.38
2022-10-22T14:30:08.707Z,24.45
2022-10-22T14:33:35.114Z,22.08
2022-10-22T14:36:43.458Z,18.05
2022-10-22T14:39:51.880Z,17.98
2022-10-22T14:42:55.497Z,18.08
2022-10-22T14:45:59.289Z,19.20
2022-10-22T14:49:02.825Z,20.90
2022-10-22T14:52:09.549Z,20.70
2022-10-22T14:55:18.432Z,18.48
2022-10-22T14:58:21.637Z,25.98
2022-10-22T15:01:24.832Z,18.23
2022-10-22T15:04:28.195Z,18.33
2022-10-22T15:07:32.815Z,18.88
2022-10-22T15:10:35.870Z,17.00
2022-10-22T15:13:41.193Z,16.85
2022-10-22T15:16:44.645Z,18.55
2022-10-22T15:19:47.606Z,20.00
2022-10-22T15:22:52.004Z,21.80
2022-10-22T15:25:56.281Z,15.50
2022-10-22T15:29:01.040Z,18.25
2022-10-22T15:32:11.612Z,16.75
2022-10-22T15:35:15.818Z,19.27
2022-10-22T15:41:34.567Z,21.33
2022-10-22T15:44:41.437Z,23.08
2022-10-22T15:47:52.826Z,21.42
2022-10-22T15:51:00.113Z,26.15
2022-10-22T15:54:06.598Z,22.50
2022-10-22T15:57:13.520Z,29.20
2022-10-22T16:00:31.979Z,27.47
2022-10-22T16:03:38.636Z,25.13
2022-10-22T16:07:12.734Z,22.27
2022-10-22T16:10:28.381Z,21.45
2022-10-22T16:13:37.936Z,26.20
2022-10-22T16:16:46.474Z,32.97
2022-10-22T16:19:49.645Z,23.00
2022-10-22T16:22:54.226Z,29.20
2022-10-22T16:26:03.869Z,26.70
2022-10-22T16:29:08.423Z,22.42
2022-10-22T16:32:16.925Z,18.90
2022-10-22T16:35:24.349Z,26.05
2022-10-22T16:38:28.852Z,37.47
2022-10-22T16:41:36.386Z,35.00
2022-10-22T16:44:39.532Z,31.73
2022-10-22T16:47:43.415Z,29.42
2022-10-22T16:53:52.784Z,17.52
2022-10-22T16:56:57.637Z,25.45
2022-10-22T17:00:00.725Z,24.00
2022-10-22T17:03:19.044Z,22.60
2022-10-22T17:06:23.277Z,26.13
2022-10-22T17:09:26.360Z,19.95
2022-10-22T17:12:35.239Z,18.40
2022-10-22T17:15:38.381Z,16.08
2022-10-22T17:21:50.930Z,19.95
2022-10-22T17:25:12.740Z,20.42
2022-10-22T17:28:17.923Z,20.05
2022-10-22T17:31:25.431Z,19.13
2022-10-22T17:34:30.428Z,23.52
2022-10-22T17:37:34.250Z,19.20
2022-10-22T17:40:38.984Z,21.00
2022-10-22T17:43:43.746Z,21.33
2022-10-22T17:46:49.465Z,19.98
2022-10-22T17:49:53.505Z,25.25
2022-10-22T17:52:56.828Z,26.50
2022-10-22T17:56:05.222Z,22.00
2022-10-22T17:59:13.707Z,25.48
2022-10-22T18:02:19.388Z,26.55
2022-10-22T18:05:23.260Z,24.15
2022-10-22T18:11:32.431Z,14.10
2022-10-22T18:14:37.694Z,17.45
2022-10-22T18:17:43.627Z,19.85
2022-10-22T18:20:50.499Z,17.60
2022-10-22T18:23:53.909Z,17.90
2022-10-22T18:26:56.978Z,18.23
2022-10-22T18:30:01.411Z,17.13
2022-10-22T18:33:04.694Z,16.05
2022-10-22T18:36:12.750Z,18.20
2022-10-22T18:39:16.834Z,15.85
2022-10-22T18:42:20.742Z,15.48
2022-10-22T18:45:37.385Z,20.00
2022-10-22T18:48:40.566Z,22.95
2022-10-22T18:51:43.572Z,19.03
2022-10-22T18:54:46.739Z,18.25
2022-10-22T18:57:58.294Z,20.40
2022-10-22T19:01:27.372Z,21.38
2022-10-22T19:04:36.568Z,18.92
2022-10-22T19:07:40.953Z,19.95
2022-10-22T19:10:44.990Z,22.02
2022-10-22T19:13:48.567Z,17.80
2022-10-22T19:16:53.142Z,24.10
2022-10-22T19:19:56.367Z,22.08
2022-10-22T19:23:00.413Z,21.40
2022-10-22T19:26:07.238Z,21.73
2022-10-22T19:29:11.529Z,20.02
2022-10-22T19:32:16.537Z,21.23
2022-10-22T19:35:19.878Z,23.75
2022-10-22T19:38:23.508Z,19.37
2022-10-22T19:41:29.552Z,23.10
2022-10-22T19:44:32.722Z,23.30
2022-10-22T19:47:38.086Z,18.98
2022-10-22T19:50:42.677Z,17.38
2022-10-22T19:56:50.039Z,19.63
2022-10-22T19:59:53.304Z,19.00
2022-10-22T20:02:57.724Z,20.63
2022-10-22T20:06:00.885Z,24.38
2022-10-22T20:09:04.039Z,21.48
2022-10-22T20:12:07.709Z,20.15
2022-10-22T20:15:11.160Z,19.67
2022-10-22T20:18:15.784Z,21.27
2022-10-22T20:21:20.266Z,21.65
2022-10-22T20:24:23.604Z,25.15
2022-10-22T20:27:26.743Z,25.10
2022-10-22T20:30:29.927Z,24.08
2022-10-22T20:33:34.288Z,23.00
2022-10-22T20:36:37.445Z,23.17
2022-10-22T20:39:40.478Z,25.17
2022-10-22T20:42:43.914Z,27.23
2022-10-22T20:45:47.385Z,30.80
2022-10-22T20:48:54.408Z,32.23
2022-10-22T20:51:57.507Z,40.95
2022-10-22T20:55:00.482Z,33.20
2022-10-22T20:58:03.726Z,45.38
2022-10-22T21:01:12.006Z,37.33
2022-10-22T21:04:18.193Z,45.47
2022-10-22T21:07:21.324Z,60.72
2022-10-22T21:10:29.020Z,42.70
2022-10-22T21:13:35.693Z,52.03
2022-10-22T21:16:42.550Z,36.47
2022-10-22T21:19:46.978Z,52.33
2022-10-22T21:22:49.941Z,41.25
2022-10-22T21:25:58.305Z,56.35
2022-10-22T21:29:01.527Z,51.08
2022-10-22T21:32:04.642Z,44.10
2022-10-22T21:35:09.874Z,44.33
2022-10-22T21:38:12.887Z,37.90
2022-10-22T21:41:18.692Z,37.13
2022-10-22T21:44:21.813Z,33.92
2022-10-22T21:47:25.826Z,30.63
2022-10-22T21:50:31.236Z,35.22
2022-10-22T21:53:34.662Z,43.65
2022-10-22T21:56:38.269Z,43.88
2022-10-22T21:59:41.568Z,44.00
2022-10-22T22:02:44.874Z,48.78
2022-10-22T22:05:52.169Z,55.85
2022-10-22T22:08:56.525Z,33.53
2022-10-22T22:11:59.803Z,40.50
2022-10-22T22:15:02.931Z,46.93
2022-10-22T22:18:06.445Z,52.67
2022-10-22T22:21:19.622Z,48.30
2022-10-22T22:24:23.836Z,38.70
2022-10-22T22:30:30.272Z,50.72
2022-10-22T22:33:33.325Z,43.15
2022-10-22T22:36:39.978Z,39.78
2022-10-22T22:39:43.182Z,36.17
2022-10-22T22:42:46.434Z,41.53
2022-10-22T22:45:59.122Z,38.03
2022-10-22T22:49:02.308Z,30.40
2022-10-22T22:52:07.038Z,40.00
2022-10-22T22:55:10.828Z,38.95
2022-10-22T22:58:13.852Z,42.80
2022-10-22T23:01:19.601Z,38.03
2022-10-22T23:04:23.839Z,39.22
2022-10-22T23:10:31.311Z,29.98
2022-10-22T23:13:35.543Z,34.25
2022-10-22T23:19:45.202Z,36.10
2022-10-22T23:22:49.659Z,38.83
2022-10-22T23:25:55.982Z,27.50
2022-10-22T23:29:02.082Z,30.00
2022-10-22T23:32:09.325Z,29.05
2022-10-22T23:35:12.271Z,26.85
2022-10-22T23:38:16.639Z,27.10
2022-10-22T23:41:19.669Z,21.65
2022-10-22T23:44:23.957Z,20.88
2022-10-22T23:47:26.978Z,22.30
2022-10-22T23:50:30.413Z,21.88
2022-10-22T23:53:34.952Z,24.00
2022-10-22T23:56:38.181Z,19.92
2022-10-22T23:59:41.408Z,21.50
